sensor_id;sensor_type;location;lat;lon;timestamp;temperature;humidity
16283;DHT22;8249;48.708;9.030;2024-02-16T00:00:25;8.70;99.90
16283;DHT22;8249;48.708;9.030;2024-02-16T00:02:52;8.70;99.90
16283;DHT22;8249;48.708;9.030;2024-02-16T00:05:20;8.70;99.90
16283;DHT22;8249;48.708;9.030;2024-02-16T00:07:47;8.70;99.90
16283;DHT22;8249;48.708;9.030;2024-02-16T00:10:14;8.70;99.90
16283;DHT22;8249;48.708;9.030;2024-02-16T00:12:43;8.70;99.90
16283;DHT22;8249;48.708;9.030;2024-02-16T00:15:10;8.70;99.90
16283;DHT22;8249;48.708;9.030;2024-02-16T00:17:38;8.70;99.90
16283;DHT22;8249;48.708;9.030;2024-02-16T00:20:06;8.80;99.90
16283;DHT22;8249;48.708;9.030;2024-02-16T00:22:35;8.80;99.90
16283;DHT22;8249;48.708;9.030;2024-02-16T00:25:02;8.80;99.90
16283;DHT22;8249;48.708;9.030;2024-02-16T00:27:29;8.80;99.90
16283;DHT22;8249;48.708;9.030;2024-02-16T00:29:56;8.90;99.90
16283;DHT22;8249;48.708;9.030;2024-02-16T00:32:23;8.80;99.90
16283;DHT22;8249;48.708;9.030;2024-02-16T00:34:55;8.80;99.90
16283;DHT22;8249;48.708;9.030;2024-02-16T00:37:22;8.90;99.90
16283;DHT22;8249;48.708;9.030;2024-02-16T00:39:51;8.90;99.90
16283;DHT22;8249;48.708;9.030;2024-02-16T00:42:20;8.90;99.90
16283;DHT22;8249;48.708;9.030;2024-02-16T00:44:47;9.00;99.90
16283;DHT22;8249;48.708;9.030;2024-02-16T00:47:14;8.90;99.90
16283;DHT22;8249;48.708;9.030;2024-02-16T00:49:41;8.90;99.90
16283;DHT22;8249;48.708;9.030;2024-02-16T00:52:09;8.90;99.90
16283;DHT22;8249;48.708;9.030;2024-02-16T00:54:36;9.00;99.90
16283;DHT22;8249;48.708;9.030;2024-02-16T00:57:05;9.00;99.90
16283;DHT22;8249;48.708;9.030;2024-02-16T00:59:32;9.00;99.90
16283;DHT22;8249;48.708;9.030;2024-02-16T01:01:59;9.00;99.90
16283;DHT22;8249;48.708;9.030;2024-02-16T01:04:26;9.00;99.90
16283;DHT22;8249;48.708;9.030;2024-02-16T01:06:53;9.00;99.90
16283;DHT22;8249;48.708;9.030;2024-02-16T01:09:20;9.00;99.90
16283;DHT22;8249;48.708;9.030;2024-02-16T01:11:47;9.00;99.90
16283;DHT22;8249;48.708;9.030;2024-02-16T01:14:15;9.00;99.90
16283;DHT22;8249;48.708;9.030;2024-02-16T01:16:42;9.10;99.90
16283;DHT22;8249;48.708;9.030;2024-02-16T01:19:09;9.10;99.90
16283;DHT22;8249;48.708;9.030;2024-02-16T01:21:37;9.10;99.90
16283;DHT22;8249;48.708;9.030;2024-02-16T01:24:04;9.20;99.90
16283;DHT22;8249;48.708;9.030;2024-02-16T01:26:31;9.20;99.90
16283;DHT22;8249;48.708;9.030;2024-02-16T01:28:59;9.20;99.90
16283;DHT22;8249;48.708;9.030;2024-02-16T01:31:29;9.20;99.90
16283;DHT22;8249;48.708;9.030;2024-02-16T01:33:56;9.30;99.90
16283;DHT22;8249;48.708;9.030;2024-02-16T01:36:23;9.30;99.90
16283;DHT22;8249;48.708;9.030;2024-02-16T01:38:50;9.30;99.90
16283;DHT22;8249;48.708;9.030;2024-02-16T01:41:16;9.30;99.90
16283;DHT22;8249;48.708;9.030;2024-02-16T01:43:43;9.30;99.90
16283;DHT22;8249;48.708;9.030;2024-02-16T01:46:10;9.40;99.90
16283;DHT22;8249;48.708;9.030;2024-02-16T01:48:39;9.40;99.90
16283;DHT22;8249;48.708;9.030;2024-02-16T01:51:07;9.40;99.90
16283;DHT22;8249;48.708;9.030;2024-02-16T01:53:35;9.40;99.90
16283;DHT22;8249;48.708;9.030;2024-02-16T01:56:03;9.40;99.90
16283;DHT22;8249;48.708;9.030;2024-02-16T01:58:30;9.40;99.90
16283;DHT22;8249;48.708;9.030;2024-02-16T02:00:57;9.40;99.90
16283;DHT22;8249;48.708;9.030;2024-02-16T02:03:24;9.40;99.90
16283;DHT22;8249;48.708;9.030;2024-02-16T02:05:53;9.40;99.90
16283;DHT22;8249;48.708;9.030;2024-02-16T02:08:21;9.30;99.90
16283;DHT22;8249;48.708;9.030;2024-02-16T02:10:48;9.40;99.90
16283;DHT22;8249;48.708;9.030;2024-02-16T02:13:15;9.30;99.90
16283;DHT22;8249;48.708;9.030;2024-02-16T02:15:45;9.30;99.90
16283;DHT22;8249;48.708;9.030;2024-02-16T02:18:12;9.30;99.90
16283;DHT22;8249;48.708;9.030;2024-02-16T02:20:39;9.30;99.90
16283;DHT22;8249;48.708;9.030;2024-02-16T02:23:08;9.30;99.90
16283;DHT22;8249;48.708;9.030;2024-02-16T02:25:34;9.30;99.90
16283;DHT22;8249;48.708;9.030;2024-02-16T02:28:02;9.30;99.90
16283;DHT22;8249;48.708;9.030;2024-02-16T02:30:29;9.40;99.90
16283;DHT22;8249;48.708;9.030;2024-02-16T02:32:56;9.40;99.90
16283;DHT22;8249;48.708;9.030;2024-02-16T02:35:23;9.40;99.90
16283;DHT22;8249;48.708;9.030;2024-02-16T02:37:50;9.40;99.90
16283;DHT22;8249;48.708;9.030;2024-02-16T02:40:19;9.40;99.90
16283;DHT22;8249;48.708;9.030;2024-02-16T02:42:46;9.40;99.90
16283;DHT22;8249;48.708;9.030;2024-02-16T02:45:12;9.40;99.90
16283;DHT22;8249;48.708;9.030;2024-02-16T02:47:39;9.40;99.90
16283;DHT22;8249;48.708;9.030;2024-02-16T02:50:07;9.40;99.90
16283;DHT22;8249;48.708;9.030;2024-02-16T02:52:34;9.40;99.90
16283;DHT22;8249;48.708;9.030;2024-02-16T02:55:01;9.40;99.90
16283;DHT22;8249;48.708;9.030;2024-02-16T02:57:30;9.40;99.90
16283;DHT22;8249;48.708;9.030;2024-02-16T03:00:03;9.40;99.90
16283;DHT22;8249;48.708;9.030;2024-02-16T03:02:31;9.40;99.90
16283;DHT22;8249;48.708;9.030;2024-02-16T03:04:58;9.40;99.90
16283;DHT22;8249;48.708;9.030;2024-02-16T03:07:25;9.30;99.90
16283;DHT22;8249;48.708;9.030;2024-02-16T03:09:54;9.30;99.90
16283;DHT22;8249;48.708;9.030;2024-02-16T03:12:21;9.30;99.90
16283;DHT22;8249;48.708;9.030;2024-02-16T03:14:50;9.30;99.90
16283;DHT22;8249;48.708;9.030;2024-02-16T03:17:17;9.30;99.90
16283;DHT22;8249;48.708;9.030;2024-02-16T03:19:44;9.30;99.90
16283;DHT22;8249;48.708;9.030;2024-02-16T03:22:11;9.30;99.90
16283;DHT22;8249;48.708;9.030;2024-02-16T03:24:38;9.20;99.90
16283;DHT22;8249;48.708;9.030;2024-02-16T03:27:05;9.20;99.90
16283;DHT22;8249;48.708;9.030;2024-02-16T03:29:31;9.20;99.90
16283;DHT22;8249;48.708;9.030;2024-02-16T03:32:00;9.20;99.90
16283;DHT22;8249;48.708;9.030;2024-02-16T03:34:27;9.30;99.90
16283;DHT22;8249;48.708;9.030;2024-02-16T03:36:54;9.20;99.90
16283;DHT22;8249;48.708;9.030;2024-02-16T03:39:21;9.20;99.90
16283;DHT22;8249;48.708;9.030;2024-02-16T03:41:48;9.10;99.90
16283;DHT22;8249;48.708;9.030;2024-02-16T03:44:15;9.10;99.90
16283;DHT22;8249;48.708;9.030;2024-02-16T03:46:42;9.10;99.90
16283;DHT22;8249;48.708;9.030;2024-02-16T03:49:10;9.10;99.90
16283;DHT22;8249;48.708;9.030;2024-02-16T03:51:37;9.10;99.90
16283;DHT22;8249;48.708;9.030;2024-02-16T03:54:04;9.10;99.90
16283;DHT22;8249;48.708;9.030;2024-02-16T03:56:31;9.10;99.90
16283;DHT22;8249;48.708;9.030;2024-02-16T03:58:58;9.10;99.90
16283;DHT22;8249;48.708;9.030;2024-02-16T04:01:25;9.10;99.90
16283;DHT22;8249;48.708;9.030;2024-02-16T04:03:52;9.10;99.90
16283;DHT22;8249;48.708;9.030;2024-02-16T04:06:21;9.10;99.90
16283;DHT22;8249;48.708;9.030;2024-02-16T04:08:48;9.10;99.90
16283;DHT22;8249;48.708;9.030;2024-02-16T04:11:15;9.10;99.90
16283;DHT22;8249;48.708;9.030;2024-02-16T04:13:42;9.10;99.90
16283;DHT22;8249;48.708;9.030;2024-02-16T04:16:09;9.10;99.90
16283;DHT22;8249;48.708;9.030;2024-02-16T04:18:36;9.10;99.90
16283;DHT22;8249;48.708;9.030;2024-02-16T04:21:04;9.10;99.90
16283;DHT22;8249;48.708;9.030;2024-02-16T04:23:32;9.10;99.90
16283;DHT22;8249;48.708;9.030;2024-02-16T04:25:59;9.10;99.90
16283;DHT22;8249;48.708;9.030;2024-02-16T04:28:26;9.10;99.90
16283;DHT22;8249;48.708;9.030;2024-02-16T04:30:53;9.10;99.90
16283;DHT22;8249;48.708;9.030;2024-02-16T04:33:20;9.10;99.90
16283;DHT22;8249;48.708;9.030;2024-02-16T04:35:47;9.20;99.90
16283;DHT22;8249;48.708;9.030;2024-02-16T04:38:16;9.20;99.90
16283;DHT22;8249;48.708;9.030;2024-02-16T04:40:45;9.20;99.90
16283;DHT22;8249;48.708;9.030;2024-02-16T04:43:12;9.20;99.90
16283;DHT22;8249;48.708;9.030;2024-02-16T04:45:39;9.20;99.90
16283;DHT22;8249;48.708;9.030;2024-02-16T04:48:07;9.20;99.90
16283;DHT22;8249;48.708;9.030;2024-02-16T04:50:34;9.10;99.90
16283;DHT22;8249;48.708;9.030;2024-02-16T04:53:02;9.20;99.90
16283;DHT22;8249;48.708;9.030;2024-02-16T04:55:29;9.10;99.90
16283;DHT22;8249;48.708;9.030;2024-02-16T04:57:58;9.10;99.90
16283;DHT22;8249;48.708;9.030;2024-02-16T05:00:25;9.10;99.90
16283;DHT22;8249;48.708;9.030;2024-02-16T05:02:53;9.20;99.90
16283;DHT22;8249;48.708;9.030;2024-02-16T05:05:20;9.30;99.90
16283;DHT22;8249;48.708;9.030;2024-02-16T05:07:48;9.20;99.90
16283;DHT22;8249;48.708;9.030;2024-02-16T05:10:16;9.30;99.90
16283;DHT22;8249;48.708;9.030;2024-02-16T05:12:45;9.30;99.90
16283;DHT22;8249;48.708;9.030;2024-02-16T05:15:14;9.30;99.90
16283;DHT22;8249;48.708;9.030;2024-02-16T05:17:41;9.40;99.90
16283;DHT22;8249;48.708;9.030;2024-02-16T05:20:10;9.40;99.90
16283;DHT22;8249;48.708;9.030;2024-02-16T05:22:41;9.40;99.90
16283;DHT22;8249;48.708;9.030;2024-02-16T05:25:09;9.50;99.90
16283;DHT22;8249;48.708;9.030;2024-02-16T05:27:37;9.40;99.90
16283;DHT22;8249;48.708;9.030;2024-02-16T05:30:05;9.40;99.90
16283;DHT22;8249;48.708;9.030;2024-02-16T05:32:36;9.40;99.90
16283;DHT22;8249;48.708;9.030;2024-02-16T05:35:05;9.30;99.90
16283;DHT22;8249;48.708;9.030;2024-02-16T05:37:37;9.30;99.90
16283;DHT22;8249;48.708;9.030;2024-02-16T05:40:07;9.30;99.90
16283;DHT22;8249;48.708;9.030;2024-02-16T05:42:45;9.20;99.90
16283;DHT22;8249;48.708;9.030;2024-02-16T05:45:13;9.10;99.90
16283;DHT22;8249;48.708;9.030;2024-02-16T05:47:41;9.20;99.90
16283;DHT22;8249;48.708;9.030;2024-02-16T05:50:09;9.00;99.90
16283;DHT22;8249;48.708;9.030;2024-02-16T05:52:37;9.00;99.90
16283;DHT22;8249;48.708;9.030;2024-02-16T05:55:05;8.90;99.90
16283;DHT22;8249;48.708;9.030;2024-02-16T05:57:32;8.90;99.90
16283;DHT22;8249;48.708;9.030;2024-02-16T06:00:00;8.90;99.90
16283;DHT22;8249;48.708;9.030;2024-02-16T06:02:30;8.80;99.90
16283;DHT22;8249;48.708;9.030;2024-02-16T06:04:59;8.80;99.90
16283;DHT22;8249;48.708;9.030;2024-02-16T06:07:26;8.70;99.90
16283;DHT22;8249;48.708;9.030;2024-02-16T06:09:55;8.70;99.90
16283;DHT22;8249;48.708;9.030;2024-02-16T06:12:22;8.70;99.90
16283;DHT22;8249;48.708;9.030;2024-02-16T06:14:49;8.60;99.90
16283;DHT22;8249;48.708;9.030;2024-02-16T06:17:16;8.50;99.90
16283;DHT22;8249;48.708;9.030;2024-02-16T06:19:43;8.40;99.90
16283;DHT22;8249;48.708;9.030;2024-02-16T06:22:12;8.30;99.90
16283;DHT22;8249;48.708;9.030;2024-02-16T06:24:39;8.30;99.90
16283;DHT22;8249;48.708;9.030;2024-02-16T06:27:06;8.30;99.90
16283;DHT22;8249;48.708;9.030;2024-02-16T06:29:34;8.30;99.90
16283;DHT22;8249;48.708;9.030;2024-02-16T06:32:01;8.30;99.90
16283;DHT22;8249;48.708;9.030;2024-02-16T06:34:29;8.30;99.90
16283;DHT22;8249;48.708;9.030;2024-02-16T06:36:56;8.40;99.90
16283;DHT22;8249;48.708;9.030;2024-02-16T06:39:25;8.40;99.90
16283;DHT22;8249;48.708;9.030;2024-02-16T06:41:51;8.40;99.90
16283;DHT22;8249;48.708;9.030;2024-02-16T06:44:18;8.50;99.90
16283;DHT22;8249;48.708;9.030;2024-02-16T06:46:45;8.40;99.90
16283;DHT22;8249;48.708;9.030;2024-02-16T06:49:12;8.40;99.90
16283;DHT22;8249;48.708;9.030;2024-02-16T06:51:39;8.40;99.90
16283;DHT22;8249;48.708;9.030;2024-02-16T06:54:06;8.40;99.90
16283;DHT22;8249;48.708;9.030;2024-02-16T06:56:34;8.40;99.90
16283;DHT22;8249;48.708;9.030;2024-02-16T06:59:02;8.40;99.90
16283;DHT22;8249;48.708;9.030;2024-02-16T07:01:29;8.30;99.90
16283;DHT22;8249;48.708;9.030;2024-02-16T07:03:56;8.30;99.90
16283;DHT22;8249;48.708;9.030;2024-02-16T07:06:23;8.30;99.90
16283;DHT22;8249;48.708;9.030;2024-02-16T07:08:51;8.30;99.90
16283;DHT22;8249;48.708;9.030;2024-02-16T07:11:19;8.30;99.90
16283;DHT22;8249;48.708;9.030;2024-02-16T07:13:50;8.40;99.90
16283;DHT22;8249;48.708;9.030;2024-02-16T07:16:17;8.30;99.90
16283;DHT22;8249;48.708;9.030;2024-02-16T07:18:45;8.50;99.90
16283;DHT22;8249;48.708;9.030;2024-02-16T07:21:12;8.50;99.90
16283;DHT22;8249;48.708;9.030;2024-02-16T07:23:39;8.60;99.90
16283;DHT22;8249;48.708;9.030;2024-02-16T07:26:07;8.60;99.90
16283;DHT22;8249;48.708;9.030;2024-02-16T07:28:34;8.80;99.90
16283;DHT22;8249;48.708;9.030;2024-02-16T07:31:02;8.80;99.90
16283;DHT22;8249;48.708;9.030;2024-02-16T07:33:30;8.90;99.90
16283;DHT22;8249;48.708;9.030;2024-02-16T07:35:57;9.00;99.90
16283;DHT22;8249;48.708;9.030;2024-02-16T07:38:24;9.10;99.90
16283;DHT22;8249;48.708;9.030;2024-02-16T07:40:51;9.20;99.90
16283;DHT22;8249;48.708;9.030;2024-02-16T07:43:18;9.30;99.90
16283;DHT22;8249;48.708;9.030;2024-02-16T07:45:45;9.40;99.90
16283;DHT22;8249;48.708;9.030;2024-02-16T07:48:13;9.40;99.90
16283;DHT22;8249;48.708;9.030;2024-02-16T07:50:40;9.50;99.90
16283;DHT22;8249;48.708;9.030;2024-02-16T07:53:07;9.70;99.90
16283;DHT22;8249;48.708;9.030;2024-02-16T07:55:35;9.80;99.90
16283;DHT22;8249;48.708;9.030;2024-02-16T07:58:02;9.90;99.90
16283;DHT22;8249;48.708;9.030;2024-02-16T08:00:29;10.10;99.90
16283;DHT22;8249;48.708;9.030;2024-02-16T08:02:56;10.10;99.90
16283;DHT22;8249;48.708;9.030;2024-02-16T08:05:25;10.30;99.90
16283;DHT22;8249;48.708;9.030;2024-02-16T08:07:52;10.50;99.90
16283;DHT22;8249;48.708;9.030;2024-02-16T08:10:19;10.70;99.90
16283;DHT22;8249;48.708;9.030;2024-02-16T08:12:48;10.80;99.90
16283;DHT22;8249;48.708;9.030;2024-02-16T08:15:15;11.00;99.90
16283;DHT22;8249;48.708;9.030;2024-02-16T08:17:48;11.20;99.90
16283;DHT22;8249;48.708;9.030;2024-02-16T08:20:15;11.50;99.90
16283;DHT22;8249;48.708;9.030;2024-02-16T08:22:44;11.70;99.90
16283;DHT22;8249;48.708;9.030;2024-02-16T08:25:10;12.00;99.90
16283;DHT22;8249;48.708;9.030;2024-02-16T08:27:37;12.50;99.90
16283;DHT22;8249;48.708;9.030;2024-02-16T08:30:06;12.80;99.90
16283;DHT22;8249;48.708;9.030;2024-02-16T08:32:34;13.20;99.90
16283;DHT22;8249;48.708;9.030;2024-02-16T08:35:01;13.80;99.90
16283;DHT22;8249;48.708;9.030;2024-02-16T08:37:29;14.30;99.90
16283;DHT22;8249;48.708;9.030;2024-02-16T08:39:57;14.70;99.90
16283;DHT22;8249;48.708;9.030;2024-02-16T08:42:24;15.00;99.90
16283;DHT22;8249;48.708;9.030;2024-02-16T08:44:51;15.60;99.90
16283;DHT22;8249;48.708;9.030;2024-02-16T08:47:18;16.40;99.90
16283;DHT22;8249;48.708;9.030;2024-02-16T08:49:45;16.70;99.90
16283;DHT22;8249;48.708;9.030;2024-02-16T08:52:12;17.60;99.90
16283;DHT22;8249;48.708;9.030;2024-02-16T08:54:39;18.20;99.90
16283;DHT22;8249;48.708;9.030;2024-02-16T08:57:07;18.70;99.90
16283;DHT22;8249;48.708;9.030;2024-02-16T08:59:35;19.40;99.90
16283;DHT22;8249;48.708;9.030;2024-02-16T09:02:02;19.90;99.90
16283;DHT22;8249;48.708;9.030;2024-02-16T09:04:30;20.60;99.90
16283;DHT22;8249;48.708;9.030;2024-02-16T09:06:56;21.00;99.90
16283;DHT22;8249;48.708;9.030;2024-02-16T09:09:24;20.70;99.90
16283;DHT22;8249;48.708;9.030;2024-02-16T09:11:51;21.10;99.90
16283;DHT22;8249;48.708;9.030;2024-02-16T09:14:20;21.20;99.90
16283;DHT22;8249;48.708;9.030;2024-02-16T09:16:48;20.90;99.90
16283;DHT22;8249;48.708;9.030;2024-02-16T09:19:17;20.70;99.90
16283;DHT22;8249;48.708;9.030;2024-02-16T09:21:45;20.20;99.90
16283;DHT22;8249;48.708;9.030;2024-02-16T09:24:12;19.60;99.90
16283;DHT22;8249;48.708;9.030;2024-02-16T09:26:43;19.70;99.90
16283;DHT22;8249;48.708;9.030;2024-02-16T09:29:12;20.10;99.90
16283;DHT22;8249;48.708;9.030;2024-02-16T09:31:40;20.50;99.60
16283;DHT22;8249;48.708;9.030;2024-02-16T09:34:07;21.10;99.10
16283;DHT22;8249;48.708;9.030;2024-02-16T09:36:34;20.20;98.80
16283;DHT22;8249;48.708;9.030;2024-02-16T09:39:02;19.50;99.90
16283;DHT22;8249;48.708;9.030;2024-02-16T09:41:32;19.10;99.90
16283;DHT22;8249;48.708;9.030;2024-02-16T09:43:59;18.30;99.90
16283;DHT22;8249;48.708;9.030;2024-02-16T09:46:28;18.10;99.90
16283;DHT22;8249;48.708;9.030;2024-02-16T09:48:59;17.70;99.90
16283;DHT22;8249;48.708;9.030;2024-02-16T09:51:28;17.50;99.90
16283;DHT22;8249;48.708;9.030;2024-02-16T09:53:55;17.30;99.90
16283;DHT22;8249;48.708;9.030;2024-02-16T09:56:22;17.30;99.90
16283;DHT22;8249;48.708;9.030;2024-02-16T09:58:50;17.10;99.90
16283;DHT22;8249;48.708;9.030;2024-02-16T10:01:18;17.10;99.90
16283;DHT22;8249;48.708;9.030;2024-02-16T10:03:46;17.10;99.90
16283;DHT22;8249;48.708;9.030;2024-02-16T10:06:15;17.00;99.90
16283;DHT22;8249;48.708;9.030;2024-02-16T10:08:48;16.90;99.90
16283;DHT22;8249;48.708;9.030;2024-02-16T10:11:16;16.80;99.90
16283;DHT22;8249;48.708;9.030;2024-02-16T10:13:53;16.70;99.90
16283;DHT22;8249;48.708;9.030;2024-02-16T10:16:21;16.80;99.90
16283;DHT22;8249;48.708;9.030;2024-02-16T10:18:48;16.70;99.90
16283;DHT22;8249;48.708;9.030;2024-02-16T10:21:25;16.50;99.90
16283;DHT22;8249;48.708;9.030;2024-02-16T10:23:57;16.40;99.90
16283;DHT22;8249;48.708;9.030;2024-02-16T10:26:24;16.30;99.90
16283;DHT22;8249;48.708;9.030;2024-02-16T10:28:54;16.20;99.90
16283;DHT22;8249;48.708;9.030;2024-02-16T10:31:23;16.10;99.90
16283;DHT22;8249;48.708;9.030;2024-02-16T10:33:56;16.20;99.90
16283;DHT22;8249;48.708;9.030;2024-02-16T10:36:25;16.20;99.90
16283;DHT22;8249;48.708;9.030;2024-02-16T10:38:55;16.10;99.90
16283;DHT22;8249;48.708;9.030;2024-02-16T10:41:26;16.00;99.90
16283;DHT22;8249;48.708;9.030;2024-02-16T10:43:54;15.90;99.90
16283;DHT22;8249;48.708;9.030;2024-02-16T10:46:22;15.80;99.90
16283;DHT22;8249;48.708;9.030;2024-02-16T10:48:49;15.80;99.90
16283;DHT22;8249;48.708;9.030;2024-02-16T10:51:19;15.80;99.90
16283;DHT22;8249;48.708;9.030;2024-02-16T10:53:51;15.90;99.90
16283;DHT22;8249;48.708;9.030;2024-02-16T10:56:26;15.90;99.90
16283;DHT22;8249;48.708;9.030;2024-02-16T10:58:54;15.90;99.90
16283;DHT22;8249;48.708;9.030;2024-02-16T11:01:21;16.00;99.90
16283;DHT22;8249;48.708;9.030;2024-02-16T11:03:48;16.00;99.90
16283;DHT22;8249;48.708;9.030;2024-02-16T11:06:15;16.10;99.90
16283;DHT22;8249;48.708;9.030;2024-02-16T11:08:43;16.20;99.90
16283;DHT22;8249;48.708;9.030;2024-02-16T11:11:11;16.10;99.90
16283;DHT22;8249;48.708;9.030;2024-02-16T11:13:39;16.20;99.90
16283;DHT22;8249;48.708;9.030;2024-02-16T11:16:07;16.20;99.90
16283;DHT22;8249;48.708;9.030;2024-02-16T11:18:38;16.30;99.90
16283;DHT22;8249;48.708;9.030;2024-02-16T11:21:06;16.30;99.90
16283;DHT22;8249;48.708;9.030;2024-02-16T11:23:35;16.40;99.90
16283;DHT22;8249;48.708;9.030;2024-02-16T11:26:03;16.50;99.90
16283;DHT22;8249;48.708;9.030;2024-02-16T11:28:34;16.60;99.90
16283;DHT22;8249;48.708;9.030;2024-02-16T11:31:02;16.80;99.90
16283;DHT22;8249;48.708;9.030;2024-02-16T11:33:29;17.00;99.90
16283;DHT22;8249;48.708;9.030;2024-02-16T11:35:57;17.20;99.90
16283;DHT22;8249;48.708;9.030;2024-02-16T11:38:26;17.60;99.90
16283;DHT22;8249;48.708;9.030;2024-02-16T11:40:54;18.00;99.90
16283;DHT22;8249;48.708;9.030;2024-02-16T11:43:21;18.80;99.90
16283;DHT22;8249;48.708;9.030;2024-02-16T11:45:50;19.60;99.90
16283;DHT22;8249;48.708;9.030;2024-02-16T11:48:19;19.90;99.90
16283;DHT22;8249;48.708;9.030;2024-02-16T11:50:48;20.10;99.90
16283;DHT22;8249;48.708;9.030;2024-02-16T11:53:16;20.10;99.90
16283;DHT22;8249;48.708;9.030;2024-02-16T11:55:46;20.20;99.90
16283;DHT22;8249;48.708;9.030;2024-02-16T11:58:15;19.90;99.90
16283;DHT22;8249;48.708;9.030;2024-02-16T12:00:43;19.70;99.90
16283;DHT22;8249;48.708;9.030;2024-02-16T12:03:11;19.20;99.90
16283;DHT22;8249;48.708;9.030;2024-02-16T12:05:38;19.10;99.90
16283;DHT22;8249;48.708;9.030;2024-02-16T12:08:06;19.00;99.90
16283;DHT22;8249;48.708;9.030;2024-02-16T12:10:33;19.00;99.90
16283;DHT22;8249;48.708;9.030;2024-02-16T12:13:01;19.00;99.90
16283;DHT22;8249;48.708;9.030;2024-02-16T12:15:31;19.20;99.90
16283;DHT22;8249;48.708;9.030;2024-02-16T12:17:59;19.30;99.90
16283;DHT22;8249;48.708;9.030;2024-02-16T12:20:28;19.30;99.90
16283;DHT22;8249;48.708;9.030;2024-02-16T12:22:55;19.50;99.90
16283;DHT22;8249;48.708;9.030;2024-02-16T12:25:22;19.40;99.90
16283;DHT22;8249;48.708;9.030;2024-02-16T12:27:50;19.60;99.90
16283;DHT22;8249;48.708;9.030;2024-02-16T12:30:16;19.50;99.90
16283;DHT22;8249;48.708;9.030;2024-02-16T12:32:43;19.30;99.90
16283;DHT22;8249;48.708;9.030;2024-02-16T12:35:10;19.20;99.90
16283;DHT22;8249;48.708;9.030;2024-02-16T12:37:38;18.90;99.90
16283;DHT22;8249;48.708;9.030;2024-02-16T12:40:07;18.70;99.90
16283;DHT22;8249;48.708;9.030;2024-02-16T12:42:34;18.50;99.90
16283;DHT22;8249;48.708;9.030;2024-02-16T12:45:00;18.40;99.90
16283;DHT22;8249;48.708;9.030;2024-02-16T12:47:27;18.30;99.90
16283;DHT22;8249;48.708;9.030;2024-02-16T12:49:56;18.20;99.90
16283;DHT22;8249;48.708;9.030;2024-02-16T12:52:23;18.20;99.90
16283;DHT22;8249;48.708;9.030;2024-02-16T12:54:52;18.10;99.90
16283;DHT22;8249;48.708;9.030;2024-02-16T12:57:19;18.10;99.90
16283;DHT22;8249;48.708;9.030;2024-02-16T12:59:46;18.00;99.90
16283;DHT22;8249;48.708;9.030;2024-02-16T13:02:13;17.90;99.90
16283;DHT22;8249;48.708;9.030;2024-02-16T13:04:39;17.90;99.90
16283;DHT22;8249;48.708;9.030;2024-02-16T13:07:06;17.90;99.90
16283;DHT22;8249;48.708;9.030;2024-02-16T13:09:33;17.90;99.90
16283;DHT22;8249;48.708;9.030;2024-02-16T13:12:01;17.90;99.90
16283;DHT22;8249;48.708;9.030;2024-02-16T13:14:28;18.00;99.90
16283;DHT22;8249;48.708;9.030;2024-02-16T13:16:55;18.00;99.90
16283;DHT22;8249;48.708;9.030;2024-02-16T13:19:22;17.90;99.90
16283;DHT22;8249;48.708;9.030;2024-02-16T13:21:49;17.90;99.90
16283;DHT22;8249;48.708;9.030;2024-02-16T13:24:17;17.90;99.90
16283;DHT22;8249;48.708;9.030;2024-02-16T13:26:43;17.90;99.90
16283;DHT22;8249;48.708;9.030;2024-02-16T13:29:12;17.80;99.90
16283;DHT22;8249;48.708;9.030;2024-02-16T13:31:39;17.70;99.90
16283;DHT22;8249;48.708;9.030;2024-02-16T13:34:08;17.60;99.90
16283;DHT22;8249;48.708;9.030;2024-02-16T13:36:35;17.50;99.90
16283;DHT22;8249;48.708;9.030;2024-02-16T13:39:01;17.30;99.90
16283;DHT22;8249;48.708;9.030;2024-02-16T13:41:29;17.20;99.90
16283;DHT22;8249;48.708;9.030;2024-02-16T13:43:56;17.10;99.90
16283;DHT22;8249;48.708;9.030;2024-02-16T13:46:24;17.00;99.90
16283;DHT22;8249;48.708;9.030;2024-02-16T13:48:51;16.80;99.90
16283;DHT22;8249;48.708;9.030;2024-02-16T13:51:18;16.80;99.90
16283;DHT22;8249;48.708;9.030;2024-02-16T13:53:45;16.70;99.90
16283;DHT22;8249;48.708;9.030;2024-02-16T13:56:12;16.60;99.90
16283;DHT22;8249;48.708;9.030;2024-02-16T13:58:39;16.60;99.90
16283;DHT22;8249;48.708;9.030;2024-02-16T14:01:06;16.60;99.90
16283;DHT22;8249;48.708;9.030;2024-02-16T14:03:36;16.60;99.90
16283;DHT22;8249;48.708;9.030;2024-02-16T14:06:03;16.70;99.90
16283;DHT22;8249;48.708;9.030;2024-02-16T14:08:35;16.70;99.90
16283;DHT22;8249;48.708;9.030;2024-02-16T14:11:02;16.70;99.90
16283;DHT22;8249;48.708;9.030;2024-02-16T14:13:32;16.80;99.90
16283;DHT22;8249;48.708;9.030;2024-02-16T14:15:59;16.70;99.90
16283;DHT22;8249;48.708;9.030;2024-02-16T14:18:26;16.70;99.90
16283;DHT22;8249;48.708;9.030;2024-02-16T14:20:54;16.60;99.90
16283;DHT22;8249;48.708;9.030;2024-02-16T14:23:26;16.60;99.90
16283;DHT22;8249;48.708;9.030;2024-02-16T14:25:53;16.50;99.90
16283;DHT22;8249;48.708;9.030;2024-02-16T14:28:20;16.50;99.90
16283;DHT22;8249;48.708;9.030;2024-02-16T14:30:46;16.50;99.90
16283;DHT22;8249;48.708;9.030;2024-02-16T14:33:15;16.40;99.90
16283;DHT22;8249;48.708;9.030;2024-02-16T14:35:43;16.50;99.90
16283;DHT22;8249;48.708;9.030;2024-02-16T14:38:12;16.50;99.90
16283;DHT22;8249;48.708;9.030;2024-02-16T14:40:39;16.50;99.90
16283;DHT22;8249;48.708;9.030;2024-02-16T14:43:06;16.50;99.90
16283;DHT22;8249;48.708;9.030;2024-02-16T14:45:33;16.50;99.90
16283;DHT22;8249;48.708;9.030;2024-02-16T14:48:04;16.40;99.90
16283;DHT22;8249;48.708;9.030;2024-02-16T14:50:31;16.40;99.90
16283;DHT22;8249;48.708;9.030;2024-02-16T14:52:57;16.40;99.90
16283;DHT22;8249;48.708;9.030;2024-02-16T14:55:25;16.40;99.90
16283;DHT22;8249;48.708;9.030;2024-02-16T14:57:55;16.40;99.90
16283;DHT22;8249;48.708;9.030;2024-02-16T15:00:22;16.40;99.90
16283;DHT22;8249;48.708;9.030;2024-02-16T15:02:50;16.50;99.90
16283;DHT22;8249;48.708;9.030;2024-02-16T15:05:17;16.60;99.90
16283;DHT22;8249;48.708;9.030;2024-02-16T15:07:43;16.60;99.90
16283;DHT22;8249;48.708;9.030;2024-02-16T15:10:11;16.60;99.90
16283;DHT22;8249;48.708;9.030;2024-02-16T15:12:39;16.70;99.90
16283;DHT22;8249;48.708;9.030;2024-02-16T15:15:08;16.40;99.90
16283;DHT22;8249;48.708;9.030;2024-02-16T15:17:35;16.40;99.90
16283;DHT22;8249;48.708;9.030;2024-02-16T15:20:03;16.20;99.90
16283;DHT22;8249;48.708;9.030;2024-02-16T15:22:31;16.20;99.90
16283;DHT22;8249;48.708;9.030;2024-02-16T15:24:57;16.10;99.90
16283;DHT22;8249;48.708;9.030;2024-02-16T15:27:24;16.00;99.90
16283;DHT22;8249;48.708;9.030;2024-02-16T15:29:53;16.00;99.90
16283;DHT22;8249;48.708;9.030;2024-02-16T15:32:20;15.90;99.90
16283;DHT22;8249;48.708;9.030;2024-02-16T15:34:47;15.90;99.90
16283;DHT22;8249;48.708;9.030;2024-02-16T15:37:18;15.90;99.90
16283;DHT22;8249;48.708;9.030;2024-02-16T15:39:46;15.80;99.90
16283;DHT22;8249;48.708;9.030;2024-02-16T15:42:13;15.70;99.90
16283;DHT22;8249;48.708;9.030;2024-02-16T15:44:40;15.70;99.90
16283;DHT22;8249;48.708;9.030;2024-02-16T15:47:08;15.70;99.90
16283;DHT22;8249;48.708;9.030;2024-02-16T15:49:37;15.60;99.90
16283;DHT22;8249;48.708;9.030;2024-02-16T15:52:04;15.50;99.90
16283;DHT22;8249;48.708;9.030;2024-02-16T15:54:33;15.50;99.90
16283;DHT22;8249;48.708;9.030;2024-02-16T15:57:00;15.50;99.90